<?xml version="1.0" encoding="UTF-8" standalone="no" ?>
<gpx xmlns="http://www.topografix.com/GPX/1/1" xmlns:xsi="http://www.w3.org/2001/XMLSchema-instance" xsi:schemaLocation="http://www.topografix.com/GPX/1/1 http://www.topografix.com/GPX/1/1/gpx.xsd" version="1.1" creator="VisuGPX - https://www.visugpx.com">
  <metadata>
    <name>GR36 LACROUZETTE ARIFAT</name>
  </metadata>
  <trk>
    <name><![CDATA[GR36 LACROUZETTE ARIFAT_3]]></name>
    <trkseg>
      <trkpt lat="43.66544" lon="2.39298">
        <ele>650.017</ele>
        <time>2016-06-10T14:13:00Z</time>
      </trkpt>
      <trkpt lat="43.66477" lon="2.39396">
        <ele>652.769</ele>
        <time>2016-06-10T14:13:20Z</time>
      </trkpt>
      <trkpt lat="43.66449" lon="2.39416">
        <ele>655.625</ele>
        <time>2016-06-10T14:13:40Z</time>
      </trkpt>
      <trkpt lat="43.66443" lon="2.39482">
        <ele>659.126</ele>
        <time>2016-06-10T14:14:00Z</time>
      </trkpt>
      <trkpt lat="43.66413" lon="2.39564">
        <ele>660.008</ele>
        <time>2016-06-10T14:14:20Z</time>
      </trkpt>
      <trkpt lat="43.6637" lon="2.39598">
        <ele>659.708</ele>
        <time>2016-06-10T14:14:40Z</time>
      </trkpt>
      <trkpt lat="43.6635" lon="2.39673">
        <ele>659.256</ele>
        <time>2016-06-10T14:15:00Z</time>
      </trkpt>
      <trkpt lat="43.66361" lon="2.39722">
        <ele>659.055</ele>
        <time>2016-06-10T14:15:20Z</time>
      </trkpt>
      <trkpt lat="43.66355" lon="2.39761">
        <ele>660.262</ele>
        <time>2016-06-10T14:15:40Z</time>
      </trkpt>
      <trkpt lat="43.66337" lon="2.39783">
        <ele>660.377</ele>
        <time>2016-06-10T14:16:00Z</time>
      </trkpt>
      <trkpt lat="43.66314" lon="2.39905">
        <ele>664.973</ele>
        <time>2016-06-10T14:16:20Z</time>
      </trkpt>
      <trkpt lat="43.66251" lon="2.40096">
        <ele>667.92</ele>
        <time>2016-06-10T14:17:00Z</time>
      </trkpt>
      <trkpt lat="43.66201" lon="2.40197">
        <ele>668.413</ele>
        <time>2016-06-10T14:17:20Z</time>
      </trkpt>
      <trkpt lat="43.66126" lon="2.40257">
        <ele>668.725</ele>
        <time>2016-06-10T14:17:40Z</time>
      </trkpt>
      <trkpt lat="43.66084" lon="2.40272">
        <ele>670.096</ele>
        <time>2016-06-10T14:18:00Z</time>
      </trkpt>
      <trkpt lat="43.66016" lon="2.40338">
        <ele>670.031</ele>
        <time>2016-06-10T14:18:20Z</time>
      </trkpt>
      <trkpt lat="43.6594" lon="2.40437">
        <ele>670.024</ele>
        <time>2016-06-10T14:18:40Z</time>
      </trkpt>
      <trkpt lat="43.6592" lon="2.40497">
        <ele>670.008</ele>
        <time>2016-06-10T14:19:00Z</time>
      </trkpt>
      <trkpt lat="43.6587" lon="2.40501">
        <ele>670.033</ele>
        <time>2016-06-10T14:19:20Z</time>
      </trkpt>
      <trkpt lat="43.65817" lon="2.40476">
        <ele>667.652</ele>
        <time>2016-06-10T14:19:40Z</time>
      </trkpt>
      <trkpt lat="43.65786" lon="2.40443">
        <ele>661.939</ele>
        <time>2016-06-10T14:20:00Z</time>
      </trkpt>
      <trkpt lat="43.65758" lon="2.40424">
        <ele>660.124</ele>
        <time>2016-06-10T14:20:20Z</time>
      </trkpt>
      <trkpt lat="43.65715" lon="2.40355">
        <ele>661.04</ele>
        <time>2016-06-10T14:20:40Z</time>
      </trkpt>
      <trkpt lat="43.65639" lon="2.40319">
        <ele>662.557</ele>
        <time>2016-06-10T14:21:00Z</time>
      </trkpt>
      <trkpt lat="43.65619" lon="2.40291">
        <ele>665.15</ele>
        <time>2016-06-10T14:21:20Z</time>
      </trkpt>
      <trkpt lat="43.65577" lon="2.40263">
        <ele>668.442</ele>
        <time>2016-06-10T14:21:40Z</time>
      </trkpt>
      <trkpt lat="43.65553" lon="2.40233">
        <ele>670.097</ele>
        <time>2016-06-10T14:22:00Z</time>
      </trkpt>
      <trkpt lat="43.65533" lon="2.40171">
        <ele>670.023</ele>
        <time>2016-06-10T14:22:20Z</time>
      </trkpt>
      <trkpt lat="43.65508" lon="2.40137">
        <ele>670.025</ele>
        <time>2016-06-10T14:22:40Z</time>
      </trkpt>
      <trkpt lat="43.65457" lon="2.40096">
        <ele>664.908</ele>
        <time>2016-06-10T14:23:00Z</time>
      </trkpt>
      <trkpt lat="43.65457" lon="2.39963">
        <ele>660.493</ele>
        <time>2016-06-10T14:23:20Z</time>
      </trkpt>
      <trkpt lat="43.65378" lon="2.39789">
        <ele>650.622</ele>
        <time>2016-06-10T14:23:40Z</time>
      </trkpt>
      <trkpt lat="43.65322" lon="2.39761">
        <ele>650.049</ele>
        <time>2016-06-10T14:24:00Z</time>
      </trkpt>
      <trkpt lat="43.65319" lon="2.39667">
        <ele>647.064</ele>
        <time>2016-06-10T14:24:20Z</time>
      </trkpt>
      <trkpt lat="43.65293" lon="2.39596">
        <ele>644.32</ele>
        <time>2016-06-10T14:24:40Z</time>
      </trkpt>
      <trkpt lat="43.65232" lon="2.39542">
        <ele>641.477</ele>
        <time>2016-06-10T14:25:00Z</time>
      </trkpt>
      <trkpt lat="43.65189" lon="2.39508">
        <ele>640.43</ele>
        <time>2016-06-10T14:25:20Z</time>
      </trkpt>
      <trkpt lat="43.65159" lon="2.39429">
        <ele>641.952</ele>
        <time>2016-06-10T14:25:40Z</time>
      </trkpt>
      <trkpt lat="43.65159" lon="2.39373">
        <ele>641.755</ele>
        <time>2016-06-10T14:26:00Z</time>
      </trkpt>
      <trkpt lat="43.65134" lon="2.39306">
        <ele>642.007</ele>
        <time>2016-06-10T14:26:20Z</time>
      </trkpt>
      <trkpt lat="43.65151" lon="2.39126">
        <ele>632.217</ele>
        <time>2016-06-10T14:26:40Z</time>
      </trkpt>
      <trkpt lat="43.65094" lon="2.39122">
        <ele>622.908</ele>
        <time>2016-06-10T14:27:00Z</time>
      </trkpt>
      <trkpt lat="43.6506" lon="2.39158">
        <ele>620.839</ele>
        <time>2016-06-10T14:27:20Z</time>
      </trkpt>
      <trkpt lat="43.65041" lon="2.39159">
        <ele>618.968</ele>
        <time>2016-06-10T14:27:40Z</time>
      </trkpt>
      <trkpt lat="43.65032" lon="2.39135">
        <ele>617.025</ele>
        <time>2016-06-10T14:28:00Z</time>
      </trkpt>
      <trkpt lat="43.6499" lon="2.39115">
        <ele>618.78</ele>
        <time>2016-06-10T14:28:20Z</time>
      </trkpt>
      <trkpt lat="43.6499" lon="2.39115">
        <ele>618.726</ele>
        <time>2016-06-10T14:28:40Z</time>
      </trkpt>
      <trkpt lat="43.64979" lon="2.39049">
        <ele>617.023</ele>
        <time>2016-06-10T14:29:00Z</time>
      </trkpt>
      <trkpt lat="43.64957" lon="2.39008">
        <ele>616.646</ele>
        <time>2016-06-10T14:29:20Z</time>
      </trkpt>
      <trkpt lat="43.6494" lon="2.38939">
        <ele>615.548</ele>
        <time>2016-06-10T14:29:40Z</time>
      </trkpt>
      <trkpt lat="43.64945" lon="2.38813">
        <ele>607.775</ele>
        <time>2016-06-10T14:30:00Z</time>
      </trkpt>
      <trkpt lat="43.64894" lon="2.38727">
        <ele>599.028</ele>
        <time>2016-06-10T14:30:20Z</time>
      </trkpt>
      <trkpt lat="43.64881" lon="2.38628">
        <ele>598.72</ele>
        <time>2016-06-10T14:30:40Z</time>
      </trkpt>
      <trkpt lat="43.64838" lon="2.38529">
        <ele>599.008</ele>
        <time>2016-06-10T14:32:00Z</time>
      </trkpt>
      <trkpt lat="43.6479" lon="2.38587">
        <ele>599.021</ele>
        <time>2016-06-10T14:32:20Z</time>
      </trkpt>
      <trkpt lat="43.64722" lon="2.38613">
        <ele>599.37</ele>
        <time>2016-06-10T14:32:40Z</time>
      </trkpt>
      <trkpt lat="43.64653" lon="2.38608">
        <ele>600.337</ele>
        <time>2016-06-10T14:33:00Z</time>
      </trkpt>
      <trkpt lat="43.64618" lon="2.38636">
        <ele>601.682</ele>
        <time>2016-06-10T14:34:20Z</time>
      </trkpt>
      <trkpt lat="43.64575" lon="2.38744">
        <ele>603.898</ele>
        <time>2016-06-10T14:34:40Z</time>
      </trkpt>
      <trkpt lat="43.64568" lon="2.38886">
        <ele>608.845</ele>
        <time>2016-06-10T14:35:00Z</time>
      </trkpt>
      <trkpt lat="43.64561" lon="2.39077">
        <ele>623.838</ele>
        <time>2016-06-10T14:35:20Z</time>
      </trkpt>
      <trkpt lat="43.64561" lon="2.39077">
        <ele>623.83</ele>
        <time>2016-06-10T14:37:00Z</time>
      </trkpt>
      <trkpt lat="43.64538" lon="2.39102">
        <ele>623.262</ele>
        <time>2016-06-10T14:37:20Z</time>
      </trkpt>
      <trkpt lat="43.64487" lon="2.39105">
        <ele>621.783</ele>
        <time>2016-06-10T14:38:40Z</time>
      </trkpt>
      <trkpt lat="43.64451" lon="2.39165">
        <ele>627.311</ele>
        <time>2016-06-10T14:39:00Z</time>
      </trkpt>
      <trkpt lat="43.64422" lon="2.39205">
        <ele>629.508</ele>
        <time>2016-06-10T14:39:20Z</time>
      </trkpt>
      <trkpt lat="43.64373" lon="2.39343">
        <ele>635.15</ele>
        <time>2016-06-10T14:39:40Z</time>
      </trkpt>
      <trkpt lat="43.64324" lon="2.39364">
        <ele>635.549</ele>
        <time>2016-06-10T14:40:00Z</time>
      </trkpt>
      <trkpt lat="43.64314" lon="2.39394">
        <ele>637.776</ele>
        <time>2016-06-10T14:40:20Z</time>
      </trkpt>
      <trkpt lat="43.64288" lon="2.39413">
        <ele>641.121</ele>
        <time>2016-06-10T14:40:40Z</time>
      </trkpt>
      <trkpt lat="43.64237" lon="2.39506">
        <ele>652.357</ele>
        <time>2016-06-10T14:41:00Z</time>
      </trkpt>
      <trkpt lat="43.64232" lon="2.39572">
        <ele>651.354</ele>
        <time>2016-06-10T14:41:20Z</time>
      </trkpt>
      <trkpt lat="43.64203" lon="2.39647">
        <ele>649.867</ele>
        <time>2016-06-10T14:41:40Z</time>
      </trkpt>
      <trkpt lat="43.64178" lon="2.39722">
        <ele>651.019</ele>
        <time>2016-06-10T14:42:00Z</time>
      </trkpt>
      <trkpt lat="43.64172" lon="2.39866">
        <ele>656.595</ele>
        <time>2016-06-10T14:44:40Z</time>
      </trkpt>
      <trkpt lat="43.64131" lon="2.39939">
        <ele>657.849</ele>
        <time>2016-06-10T14:45:20Z</time>
      </trkpt>
      <trkpt lat="43.64116" lon="2.3995">
        <ele>656.723</ele>
        <time>2016-06-10T14:45:40Z</time>
      </trkpt>
      <trkpt lat="43.64096" lon="2.39993">
        <ele>656.508</ele>
        <time>2016-06-10T14:46:20Z</time>
      </trkpt>
      <trkpt lat="43.64019" lon="2.40027">
        <ele>660.663</ele>
        <time>2016-06-10T14:47:00Z</time>
      </trkpt>
      <trkpt lat="43.63982" lon="2.40055">
        <ele>660.492</ele>
        <time>2016-06-10T14:48:00Z</time>
      </trkpt>
      <trkpt lat="43.63923" lon="2.4016">
        <ele>659.729</ele>
        <time>2016-06-10T14:51:20Z</time>
      </trkpt>
      <trkpt lat="43.63884" lon="2.40325">
        <ele>663.754</ele>
        <time>2019-10-31T17:33:33Z</time>
      </trkpt>
      <trkpt lat="43.63878" lon="2.40446">
        <ele>661.35</ele>
        <time>2019-10-31T17:33:53Z</time>
      </trkpt>
      <trkpt lat="43.63909" lon="2.40501">
        <ele>659.057</ele>
        <time>2019-10-31T17:34:13Z</time>
      </trkpt>
      <trkpt lat="43.63864" lon="2.4054">
        <ele>650.41</ele>
        <time>2019-10-31T17:34:33Z</time>
      </trkpt>
      <trkpt lat="43.63881" lon="2.40619">
        <ele>647.442</ele>
        <time>2019-10-31T17:34:53Z</time>
      </trkpt>
      <trkpt lat="43.63822" lon="2.40695">
        <ele>653.422</ele>
        <time>2019-10-31T17:35:13Z</time>
      </trkpt>
      <trkpt lat="43.63818" lon="2.40729">
        <ele>658.562</ele>
        <time>2019-10-31T17:35:33Z</time>
      </trkpt>
      <trkpt lat="43.63796" lon="2.40729">
        <ele>655.108</ele>
        <time>2019-10-31T17:35:53Z</time>
      </trkpt>
      <trkpt lat="43.63813" lon="2.40778">
        <ele>662.808</ele>
        <time>2019-10-31T17:36:13Z</time>
      </trkpt>
      <trkpt lat="43.63836" lon="2.40834">
        <ele>670.046</ele>
        <time>2019-10-31T17:36:33Z</time>
      </trkpt>
      <trkpt lat="43.6386" lon="2.40866">
        <ele>670.945</ele>
        <time>2019-10-31T17:36:53Z</time>
      </trkpt>
      <trkpt lat="43.63852" lon="2.40909">
        <ele>668.742</ele>
        <time>2019-10-31T17:37:13Z</time>
      </trkpt>
      <trkpt lat="43.63875" lon="2.40965">
        <ele>668.027</ele>
        <time>2019-10-31T17:37:33Z</time>
      </trkpt>
      <trkpt lat="43.63872" lon="2.41041">
        <ele>662.633</ele>
        <time>2019-10-31T17:37:53Z</time>
      </trkpt>
      <trkpt lat="43.63861" lon="2.411">
        <ele>661.05</ele>
        <time>2019-10-31T17:38:13Z</time>
      </trkpt>
      <trkpt lat="43.63788" lon="2.41156">
        <ele>660.023</ele>
        <time>2019-10-31T17:38:33Z</time>
      </trkpt>
      <trkpt lat="43.63696" lon="2.41156">
        <ele>660.025</ele>
        <time>2019-10-31T17:38:53Z</time>
      </trkpt>
      <trkpt lat="43.6354" lon="2.41184">
        <ele>661.553</ele>
        <time>2019-10-31T17:39:13Z</time>
      </trkpt>
      <trkpt lat="43.6349" lon="2.41257">
        <ele>659.004</ele>
        <time>2019-10-31T17:39:33Z</time>
      </trkpt>
      <trkpt lat="43.63442" lon="2.41282">
        <ele>659.714</ele>
        <time>2019-10-31T17:39:53Z</time>
      </trkpt>
      <trkpt lat="43.63398" lon="2.41276">
        <ele>655.408</ele>
        <time>2019-10-31T17:40:13Z</time>
      </trkpt>
      <trkpt lat="43.63293" lon="2.41209">
        <ele>650.439</ele>
        <time>2019-10-31T17:40:33Z</time>
      </trkpt>
      <trkpt lat="43.63213" lon="2.41227">
        <ele>653.428</ele>
        <time>2019-10-31T17:40:53Z</time>
      </trkpt>
      <trkpt lat="43.63008" lon="2.41192">
        <ele>648.365</ele>
        <time>2019-10-31T17:41:13Z</time>
      </trkpt>
      <trkpt lat="43.62859" lon="2.41143">
        <ele>644.27</ele>
        <time>2019-10-31T17:41:33Z</time>
      </trkpt>
      <trkpt lat="43.62869" lon="2.41051">
        <ele>645.266</ele>
        <time>2019-10-31T17:41:53Z</time>
      </trkpt>
      <trkpt lat="43.62757" lon="2.41057">
        <ele>644.133</ele>
        <time>2019-10-31T17:42:13Z</time>
      </trkpt>
      <trkpt lat="43.62751" lon="2.41139">
        <ele>640.146</ele>
        <time>2019-10-31T17:42:33Z</time>
      </trkpt>
      <trkpt lat="43.62721" lon="2.41201">
        <ele>642.928</ele>
        <time>2019-10-31T17:42:53Z</time>
      </trkpt>
      <trkpt lat="43.6269" lon="2.41184">
        <ele>635.534</ele>
        <time>2019-10-31T17:43:13Z</time>
      </trkpt>
      <trkpt lat="43.62572" lon="2.41229">
        <ele>636.255</ele>
        <time>2019-10-31T17:43:33Z</time>
      </trkpt>
      <trkpt lat="43.62541" lon="2.41345">
        <ele>636.41</ele>
        <time>2019-10-31T17:43:53Z</time>
      </trkpt>
      <trkpt lat="43.62487" lon="2.41495">
        <ele>624.408</ele>
        <time>2019-10-31T17:44:13Z</time>
      </trkpt>
      <trkpt lat="43.62407" lon="2.41664">
        <ele>610.047</ele>
        <time>2019-10-31T17:44:33Z</time>
      </trkpt>
      <trkpt lat="43.62381" lon="2.41772">
        <ele>609.146</ele>
        <time>2019-10-31T17:44:53Z</time>
      </trkpt>
      <trkpt lat="43.62383" lon="2.41838">
        <ele>608.673</ele>
        <time>2019-10-31T17:45:13Z</time>
      </trkpt>
      <trkpt lat="43.62316" lon="2.41911">
        <ele>597.088</ele>
        <time>2019-10-31T17:45:33Z</time>
      </trkpt>
      <trkpt lat="43.62277" lon="2.41952">
        <ele>588.624</ele>
        <time>2019-10-31T17:45:53Z</time>
      </trkpt>
      <trkpt lat="43.62285" lon="2.41881">
        <ele>582.581</ele>
        <time>2019-10-31T17:46:13Z</time>
      </trkpt>
      <trkpt lat="43.62244" lon="2.41903">
        <ele>573.884</ele>
        <time>2019-10-31T17:46:33Z</time>
      </trkpt>
      <trkpt lat="43.62229" lon="2.4195">
        <ele>565.256</ele>
        <time>2019-10-31T17:46:53Z</time>
      </trkpt>
      <trkpt lat="43.62235" lon="2.42016">
        <ele>562.944</ele>
        <time>2019-10-31T17:47:13Z</time>
      </trkpt>
      <trkpt lat="43.6221" lon="2.42018">
        <ele>554.005</ele>
        <time>2019-10-31T17:47:33Z</time>
      </trkpt>
      <trkpt lat="43.62185" lon="2.42068">
        <ele>549.115</ele>
        <time>2019-10-31T17:47:53Z</time>
      </trkpt>
      <trkpt lat="43.62179" lon="2.42182">
        <ele>545.108</ele>
        <time>2019-10-31T17:48:13Z</time>
      </trkpt>
      <trkpt lat="43.62148" lon="2.42287">
        <ele>530.388</ele>
        <time>2019-10-31T17:48:33Z</time>
      </trkpt>
      <trkpt lat="43.62115" lon="2.42287">
        <ele>526.587</ele>
        <time>2019-10-31T17:48:53Z</time>
      </trkpt>
      <trkpt lat="43.62087" lon="2.42216">
        <ele>534.734</ele>
        <time>2019-10-31T17:49:13Z</time>
      </trkpt>
      <trkpt lat="43.62056" lon="2.42254">
        <ele>546.129</ele>
        <time>2019-10-31T17:49:33Z</time>
      </trkpt>
      <trkpt lat="43.62033" lon="2.42263">
        <ele>556.185</ele>
        <time>2019-10-31T17:49:53Z</time>
      </trkpt>
      <trkpt lat="43.62022" lon="2.42214">
        <ele>563.172</ele>
        <time>2019-10-31T17:50:13Z</time>
      </trkpt>
      <trkpt lat="43.61994" lon="2.42289">
        <ele>568.245</ele>
        <time>2019-10-31T17:50:33Z</time>
      </trkpt>
      <trkpt lat="43.61935" lon="2.4233">
        <ele>582.157</ele>
        <time>2019-10-31T17:50:53Z</time>
      </trkpt>
      <trkpt lat="43.61892" lon="2.42342">
        <ele>588.618</ele>
        <time>2019-10-31T17:51:13Z</time>
      </trkpt>
      <trkpt lat="43.61811" lon="2.42441">
        <ele>595.698</ele>
        <time>2019-10-31T17:51:33Z</time>
      </trkpt>
      <trkpt lat="43.61735" lon="2.42482">
        <ele>601.217</ele>
        <time>2019-10-31T17:51:53Z</time>
      </trkpt>
      <trkpt lat="43.61587" lon="2.42446">
        <ele>600.308</ele>
        <time>2019-10-31T17:52:13Z</time>
      </trkpt>
      <trkpt lat="43.61544" lon="2.42449">
        <ele>594.275</ele>
        <time>2019-10-31T17:52:33Z</time>
      </trkpt>
      <trkpt lat="43.61502" lon="2.42394">
        <ele>581.594</ele>
        <time>2019-10-31T17:52:53Z</time>
      </trkpt>
      <trkpt lat="43.61474" lon="2.42316">
        <ele>580.011</ele>
        <time>2019-10-31T17:53:13Z</time>
      </trkpt>
      <trkpt lat="43.6132" lon="2.42274">
        <ele>548.846</ele>
        <time>2019-10-31T17:53:33Z</time>
      </trkpt>
      <trkpt lat="43.613" lon="2.42306">
        <ele>546.712</ele>
        <time>2019-10-31T17:53:53Z</time>
      </trkpt>
      <trkpt lat="43.61217" lon="2.42276">
        <ele>531.439</ele>
        <time>2019-10-31T17:54:13Z</time>
      </trkpt>
      <trkpt lat="43.6114" lon="2.42319">
        <ele>525.022</ele>
        <time>2019-10-31T17:54:33Z</time>
      </trkpt>
      <trkpt lat="43.61023" lon="2.42281">
        <ele>508.014</ele>
        <time>2019-10-31T17:54:53Z</time>
      </trkpt>
      <trkpt lat="43.60991" lon="2.42294">
        <ele>509.092</ele>
        <time>2019-10-31T17:55:13Z</time>
      </trkpt>
      <trkpt lat="43.60927" lon="2.42377">
        <ele>495.873</ele>
        <time>2019-10-31T17:55:33Z</time>
      </trkpt>
      <trkpt lat="43.60902" lon="2.42553">
        <ele>480.42</ele>
        <time>2019-10-31T17:55:53Z</time>
      </trkpt>
      <trkpt lat="43.60832" lon="2.42705">
        <ele>463.308</ele>
        <time>2019-10-31T17:56:13Z</time>
      </trkpt>
      <trkpt lat="43.60758" lon="2.42776">
        <ele>442.753</ele>
        <time>2019-10-31T17:56:33Z</time>
      </trkpt>
      <trkpt lat="43.607" lon="2.42778">
        <ele>430.062</ele>
        <time>2019-10-31T17:56:53Z</time>
      </trkpt>
      <trkpt lat="43.60665" lon="2.42751">
        <ele>421.459</ele>
        <time>2019-10-31T17:57:13Z</time>
      </trkpt>
      <trkpt lat="43.60654" lon="2.42708">
        <ele>411.824</ele>
        <time>2019-10-31T17:57:33Z</time>
      </trkpt>
      <trkpt lat="43.60636" lon="2.42737">
        <ele>410.43</ele>
        <time>2019-10-31T17:57:53Z</time>
      </trkpt>
      <trkpt lat="43.60641" lon="2.42782">
        <ele>410.587</ele>
        <time>2019-10-31T17:58:13Z</time>
      </trkpt>
      <trkpt lat="43.60665" lon="2.4279">
        <ele>416.55</ele>
        <time>2019-10-31T17:58:33Z</time>
      </trkpt>
      <trkpt lat="43.60686" lon="2.42828">
        <ele>414.942</ele>
        <time>2019-10-31T17:58:53Z</time>
      </trkpt>
      <trkpt lat="43.6063" lon="2.42943">
        <ele>415.183</ele>
        <time>2019-10-31T17:59:13Z</time>
      </trkpt>
      <trkpt lat="43.6061" lon="2.42877">
        <ele>415.725</ele>
        <time>2019-10-31T17:59:33Z</time>
      </trkpt>
      <trkpt lat="43.60572" lon="2.42797">
        <ele>423.517</ele>
        <time>2019-10-31T17:59:53Z</time>
      </trkpt>
      <trkpt lat="43.60569" lon="2.42729">
        <ele>428.908</ele>
        <time>2019-10-31T18:00:13Z</time>
      </trkpt>
      <trkpt lat="43.60586" lon="2.42594">
        <ele>444.392</ele>
        <time>2019-10-31T18:00:33Z</time>
      </trkpt>
      <trkpt lat="43.60612" lon="2.42504">
        <ele>450.371</ele>
        <time>2019-10-31T18:00:53Z</time>
      </trkpt>
      <trkpt lat="43.60574" lon="2.42418">
        <ele>454.518</ele>
        <time>2019-10-31T18:01:13Z</time>
      </trkpt>
      <trkpt lat="43.60512" lon="2.42408">
        <ele>471.813</ele>
        <time>2019-10-31T18:01:33Z</time>
      </trkpt>
      <trkpt lat="43.60445" lon="2.4242">
        <ele>491.179</ele>
        <time>2019-10-31T18:01:53Z</time>
      </trkpt>
      <trkpt lat="43.60391" lon="2.424">
        <ele>501.366</ele>
        <time>2019-10-31T18:02:13Z</time>
      </trkpt>
      <trkpt lat="43.60346" lon="2.42342">
        <ele>505.179</ele>
        <time>2019-10-31T18:02:33Z</time>
      </trkpt>
      <trkpt lat="43.60298" lon="2.42332">
        <ele>515.541</ele>
        <time>2019-10-31T18:02:53Z</time>
      </trkpt>
      <trkpt lat="43.60259" lon="2.42338">
        <ele>515.586</ele>
        <time>2019-10-31T18:03:13Z</time>
      </trkpt>
      <trkpt lat="43.60229" lon="2.42381">
        <ele>521.46</ele>
        <time>2019-10-31T18:03:33Z</time>
      </trkpt>
      <trkpt lat="43.60197" lon="2.42323">
        <ele>521.126</ele>
        <time>2019-10-31T18:03:53Z</time>
      </trkpt>
      <trkpt lat="43.60175" lon="2.42227">
        <ele>524.108</ele>
        <time>2019-10-31T18:04:13Z</time>
      </trkpt>
      <trkpt lat="43.60138" lon="2.42194">
        <ele>530.072</ele>
        <time>2019-10-31T18:04:33Z</time>
      </trkpt>
      <trkpt lat="43.60055" lon="2.42197">
        <ele>528.361</ele>
        <time>2019-10-31T18:04:53Z</time>
      </trkpt>
      <trkpt lat="43.5999" lon="2.42216">
        <ele>527.348</ele>
        <time>2019-10-31T18:05:13Z</time>
      </trkpt>
      <trkpt lat="43.59887" lon="2.42295">
        <ele>519.093</ele>
        <time>2019-10-31T18:05:33Z</time>
      </trkpt>
      <trkpt lat="43.5982" lon="2.42464">
        <ele>523.349</ele>
        <time>2019-10-31T18:05:53Z</time>
      </trkpt>
      <trkpt lat="43.59793" lon="2.42566">
        <ele>524.846</ele>
        <time>2019-10-31T18:06:13Z</time>
      </trkpt>
      <trkpt lat="43.59724" lon="2.42675">
        <ele>518.269</ele>
        <time>2019-10-31T18:06:33Z</time>
      </trkpt>
      <trkpt lat="43.59676" lon="2.42764">
        <ele>513.421</ele>
        <time>2019-10-31T18:06:53Z</time>
      </trkpt>
      <trkpt lat="43.59655" lon="2.42829">
        <ele>515.345</ele>
        <time>2019-10-31T18:07:13Z</time>
      </trkpt>
      <trkpt lat="43.59595" lon="2.42808">
        <ele>512.447</ele>
        <time>2019-10-31T18:07:33Z</time>
      </trkpt>
      <trkpt lat="43.59558" lon="2.42823">
        <ele>512.811</ele>
        <time>2019-10-31T18:07:53Z</time>
      </trkpt>
      <trkpt lat="43.59406" lon="2.428">
        <ele>514.808</ele>
        <time>2019-10-31T18:08:13Z</time>
      </trkpt>
      <trkpt lat="43.59323" lon="2.42764">
        <ele>520.948</ele>
        <time>2019-10-31T18:08:33Z</time>
      </trkpt>
      <trkpt lat="43.59274" lon="2.42709">
        <ele>517.457</ele>
        <time>2019-10-31T18:08:53Z</time>
      </trkpt>
      <trkpt lat="43.59124" lon="2.42587">
        <ele>498.954</ele>
        <time>2019-10-31T18:09:13Z</time>
      </trkpt>
      <trkpt lat="43.59072" lon="2.42569">
        <ele>491.099</ele>
        <time>2019-10-31T18:09:33Z</time>
      </trkpt>
      <trkpt lat="43.59031" lon="2.42589">
        <ele>480.715</ele>
        <time>2019-10-31T18:09:53Z</time>
      </trkpt>
      <trkpt lat="43.58949" lon="2.42705">
        <ele>459.792</ele>
        <time>2019-10-31T18:10:13Z</time>
      </trkpt>
      <trkpt lat="43.58907" lon="2.42768">
        <ele>458.315</ele>
        <time>2019-10-31T18:10:33Z</time>
      </trkpt>
      <trkpt lat="43.58814" lon="2.42857">
        <ele>463.727</ele>
        <time>2019-10-31T18:10:53Z</time>
      </trkpt>
      <trkpt lat="43.58735" lon="2.42953">
        <ele>454.356</ele>
        <time>2019-10-31T18:11:13Z</time>
      </trkpt>
      <trkpt lat="43.5869" lon="2.42986">
        <ele>448.659</ele>
        <time>2019-10-31T18:11:33Z</time>
      </trkpt>
      <trkpt lat="43.58587" lon="2.43">
        <ele>440.414</ele>
        <time>2019-10-31T18:11:53Z</time>
      </trkpt>
      <trkpt lat="43.58515" lon="2.4298">
        <ele>426.608</ele>
        <time>2019-10-31T18:12:13Z</time>
      </trkpt>
      <trkpt lat="43.5847" lon="2.42956">
        <ele>415.229</ele>
        <time>2019-10-31T18:12:33Z</time>
      </trkpt>
      <trkpt lat="43.58459" lon="2.42981">
        <ele>411.538</ele>
        <time>2019-10-31T18:12:53Z</time>
      </trkpt>
      <trkpt lat="43.58474" lon="2.43047">
        <ele>408.725</ele>
        <time>2019-10-31T18:13:13Z</time>
      </trkpt>
      <trkpt lat="43.58511" lon="2.43116">
        <ele>405.37</ele>
        <time>2019-10-31T18:13:33Z</time>
      </trkpt>
      <trkpt lat="43.5851" lon="2.432">
        <ele>391.936</ele>
        <time>2019-10-31T18:13:53Z</time>
      </trkpt>
      <trkpt lat="43.58535" lon="2.43296">
        <ele>390.293</ele>
        <time>2019-10-31T18:14:13Z</time>
      </trkpt>
      <trkpt lat="43.5855" lon="2.43312">
        <ele>390.086</ele>
        <time>2019-10-31T18:14:33Z</time>
      </trkpt>
      <trkpt lat="43.58538" lon="2.4341">
        <ele>392.858</ele>
        <time>2019-10-31T18:14:53Z</time>
      </trkpt>
      <trkpt lat="43.58558" lon="2.43473">
        <ele>395.766</ele>
        <time>2019-10-31T18:15:13Z</time>
      </trkpt>
      <trkpt lat="43.58523" lon="2.43753">
        <ele>400.229</ele>
        <time>2019-10-31T18:15:33Z</time>
      </trkpt>
      <trkpt lat="43.58527" lon="2.43817">
        <ele>399.921</ele>
        <time>2019-10-31T18:15:53Z</time>
      </trkpt>
      <trkpt lat="43.58507" lon="2.43878">
        <ele>399.108</ele>
        <time>2019-10-31T18:16:13Z</time>
      </trkpt>
      <trkpt lat="43.58534" lon="2.44018">
        <ele>417.26</ele>
        <time>2019-10-31T18:16:33Z</time>
      </trkpt>
    </trkseg>
  </trk>
</gpx>